createdAt,value
2018-08-25T00:00:48.958Z,8.13
2018-08-25T00:03:15.968Z,5.90
2018-08-25T00:05:43.177Z,5.13
2018-08-25T00:08:10.172Z,6.93
2018-08-25T00:10:37.137Z,5.53
2018-08-25T00:13:04.212Z,10.63
2018-08-25T00:15:31.211Z,7.13
2018-08-25T00:17:58.235Z,11.80
2018-08-25T00:20:25.542Z,13.00
2018-08-25T00:22:52.526Z,8.00
2018-08-25T00:25:19.530Z,12.10
2018-08-25T00:27:46.826Z,8.90
2018-08-25T00:30:19.680Z,14.80
2018-08-25T00:32:46.682Z,12.10
2018-08-25T00:35:13.658Z,8.03
2018-08-25T00:37:40.589Z,5.50
2018-08-25T00:40:07.868Z,6.50
2018-08-25T00:42:34.866Z,6.60
2018-08-25T00:45:01.790Z,7.20
2018-08-25T00:47:29.138Z,9.13
2018-08-25T00:49:56.139Z,7.47
2018-08-25T00:52:23.125Z,7.57
2018-08-25T00:54:50.593Z,13.27
2018-08-25T00:57:17.525Z,8.70
2018-08-25T00:59:44.487Z,6.50
2018-08-25T01:02:11.513Z,12.60
2018-08-25T01:04:38.559Z,4.13
2018-08-25T01:07:05.555Z,7.53
2018-08-25T01:09:32.804Z,8.17
2018-08-25T01:11:59.792Z,5.87
2018-08-25T01:14:26.732Z,7.70
2018-08-25T01:16:54.058Z,6.33
2018-08-25T01:19:21.070Z,7.30
2018-08-25T01:21:48.054Z,5.43
2018-08-25T01:24:15.371Z,8.70
2018-08-25T01:26:42.380Z,10.57
2018-08-25T01:29:09.485Z,6.17
2018-08-25T01:31:36.551Z,8.90
2018-08-25T01:34:03.561Z,6.60
2018-08-25T01:36:30.600Z,10.40
2018-08-25T01:38:57.924Z,8.93
2018-08-25T01:41:25.046Z,7.10
2018-08-25T01:43:52.217Z,9.37
2018-08-25T01:46:19.576Z,7.73
2018-08-25T01:48:46.639Z,7.33
2018-08-25T01:51:13.798Z,7.83
2018-08-25T01:53:41.097Z,7.97
2018-08-25T01:56:08.206Z,11.90
2018-08-25T01:58:35.244Z,9.20
2018-08-25T02:01:02.329Z,10.43
2018-08-25T02:03:29.518Z,6.93
2018-08-25T02:05:56.669Z,8.00
2018-08-25T02:08:24.035Z,11.30
2018-08-25T02:10:51.109Z,14.03
2018-08-25T02:13:18.221Z,7.90
2018-08-25T02:15:45.646Z,18.83
2018-08-25T02:18:12.750Z,9.67
2018-08-25T02:20:39.808Z,8.83
2018-08-25T02:23:07.165Z,8.87
2018-08-25T02:25:34.249Z,12.67
2018-08-25T02:28:01.312Z,9.13
2018-08-25T02:30:28.448Z,17.63
2018-08-25T02:32:55.529Z,10.60
2018-08-25T02:35:22.591Z,11.70
2018-08-25T02:37:49.973Z,14.90
2018-08-25T02:40:17.127Z,13.30
2018-08-25T02:42:44.253Z,16.10
2018-08-25T02:45:11.598Z,17.37
2018-08-25T02:47:38.627Z,14.87
2018-08-25T02:50:05.859Z,11.17
2018-08-25T02:52:33.273Z,10.73
2018-08-25T02:55:00.340Z,14.20
2018-08-25T02:57:27.413Z,14.23
2018-08-25T02:59:54.568Z,8.50
2018-08-25T03:02:21.663Z,12.40
2018-08-25T03:04:48.700Z,12.83
2018-08-25T03:07:16.044Z,7.80
2018-08-25T03:09:43.163Z,8.23
2018-08-25T03:12:10.252Z,10.17
2018-08-25T03:14:37.565Z,8.07
2018-08-25T03:17:04.641Z,9.87
2018-08-25T03:19:31.738Z,11.20
2018-08-25T03:21:58.955Z,9.03
2018-08-25T03:24:26.038Z,10.00
2018-08-25T03:26:53.104Z,8.50
2018-08-25T03:29:20.487Z,12.77
2018-08-25T03:31:47.553Z,8.80
2018-08-25T03:34:14.665Z,9.80
2018-08-25T03:36:41.984Z,7.17
2018-08-25T03:39:10.495Z,8.83
2018-08-25T03:41:37.573Z,13.10
2018-08-25T03:44:05.173Z,10.57
2018-08-25T03:46:32.321Z,12.37
2018-08-25T03:48:59.355Z,13.23
2018-08-25T03:51:26.437Z,6.30
2018-08-25T03:53:53.514Z,10.10
2018-08-25T03:56:20.593Z,8.40
2018-08-25T03:58:47.964Z,8.70
2018-08-25T04:01:15.008Z,7.73
2018-08-25T04:03:42.094Z,15.33
2018-08-25T04:06:09.165Z,9.67
2018-08-25T04:08:36.273Z,11.90
2018-08-25T04:11:03.341Z,8.27
2018-08-25T04:13:30.759Z,11.07
2018-08-25T04:15:57.825Z,11.80
2018-08-25T04:18:24.901Z,15.30
2018-08-25T04:20:52.296Z,10.60
2018-08-25T04:23:19.385Z,12.80
2018-08-25T04:25:46.487Z,13.93
2018-08-25T04:28:13.885Z,20.00
2018-08-25T04:30:40.934Z,15.93
2018-08-25T04:33:07.970Z,18.00
2018-08-25T04:35:35.008Z,13.83
2018-08-25T04:38:02.112Z,19.07
2018-08-25T04:40:29.169Z,28.27
2018-08-25T04:42:56.477Z,37.47
2018-08-25T04:45:23.533Z,40.37
2018-08-25T04:47:50.657Z,44.50
2018-08-25T04:50:18.113Z,39.63
2018-08-25T04:52:45.211Z,39.37
2018-08-25T04:55:12.281Z,39.50
2018-08-25T04:57:39.403Z,46.40
2018-08-25T05:00:06.460Z,41.13
2018-08-25T05:02:33.524Z,40.90
2018-08-25T05:05:00.596Z,46.47
2018-08-25T05:07:27.663Z,45.67
2018-08-25T05:09:54.717Z,46.57
2018-08-25T05:12:22.650Z,42.80
2018-08-25T05:14:49.714Z,50.10
2018-08-25T05:17:16.755Z,46.03
2018-08-25T05:19:44.084Z,40.73
2018-08-25T05:22:11.139Z,41.43
2018-08-25T05:24:38.229Z,43.47
2018-08-25T05:27:05.708Z,42.30
2018-08-25T05:29:32.737Z,45.37
2018-08-25T05:31:59.810Z,48.30
2018-08-25T05:34:26.976Z,44.90
2018-08-25T05:36:54.037Z,56.03
2018-08-25T05:39:21.125Z,51.53
2018-08-25T05:41:48.573Z,49.73
2018-08-25T05:44:15.723Z,45.87
2018-08-25T05:46:42.772Z,50.90
2018-08-25T05:49:09.856Z,53.57
2018-08-25T05:51:36.952Z,51.23
2018-08-25T05:54:04.076Z,52.00
2018-08-25T05:56:31.569Z,48.17
2018-08-25T05:58:58.718Z,45.40
2018-08-25T06:01:25.921Z,54.13
2018-08-25T06:03:53.647Z,47.73
2018-08-25T06:06:20.746Z,56.10
2018-08-25T06:08:47.805Z,55.50
2018-08-25T06:11:14.797Z,48.40
2018-08-25T06:13:41.747Z,54.07
2018-08-25T06:16:08.816Z,48.60
2018-08-25T06:18:36.099Z,61.27
2018-08-25T06:21:03.233Z,51.07
2018-08-25T06:23:30.186Z,55.50
2018-08-25T06:25:57.450Z,45.80
2018-08-25T06:28:24.786Z,51.13
2018-08-25T06:30:51.747Z,49.10
2018-08-25T06:33:18.719Z,49.70
2018-08-25T06:35:45.890Z,53.90
2018-08-25T06:38:12.947Z,45.07
2018-08-25T06:40:40.248Z,48.27
2018-08-25T06:43:07.313Z,50.03
2018-08-25T06:45:34.290Z,43.40
2018-08-25T06:48:01.377Z,41.60
2018-08-25T06:50:28.458Z,47.43
2018-08-25T06:53:05.762Z,44.63
2018-08-25T06:55:32.863Z,47.77
2018-08-25T06:57:59.880Z,47.40
2018-08-25T07:00:27.239Z,46.10
2018-08-25T07:02:54.157Z,38.53
2018-08-25T07:05:21.176Z,47.77
2018-08-25T07:07:48.936Z,47.83
2018-08-25T07:10:15.910Z,49.93
2018-08-25T07:12:42.960Z,55.03
2018-08-25T07:15:10.000Z,68.07
2018-08-25T07:17:36.940Z,55.83
2018-08-25T07:20:03.898Z,55.83
2018-08-25T07:22:31.221Z,56.07
2018-08-25T07:24:58.207Z,48.57
2018-08-25T07:27:25.162Z,54.87
2018-08-25T07:29:52.203Z,58.33
2018-08-25T07:32:19.135Z,55.23
2018-08-25T07:34:46.095Z,51.20
2018-08-25T07:37:13.060Z,46.50
2018-08-25T07:39:40.103Z,49.87
2018-08-25T07:42:07.077Z,47.43
2018-08-25T07:44:34.328Z,51.37
2018-08-25T07:47:01.373Z,47.60
2018-08-25T07:49:28.399Z,50.07
2018-08-25T07:51:55.412Z,46.93
2018-08-25T07:54:22.851Z,41.20
2018-08-25T07:56:49.847Z,54.13
2018-08-25T07:59:17.267Z,43.57
2018-08-25T08:01:44.312Z,40.97
2018-08-25T08:04:11.311Z,46.17
2018-08-25T08:06:38.862Z,47.53
2018-08-25T08:09:06.563Z,44.73
2018-08-25T08:11:33.571Z,43.60
2018-08-25T08:14:00.653Z,45.63
2018-08-25T08:16:27.683Z,45.23
2018-08-25T08:18:54.741Z,46.80
2018-08-25T08:21:21.775Z,46.40
2018-08-25T08:23:48.867Z,46.10
2018-08-25T08:26:15.935Z,42.57
2018-08-25T08:28:43.386Z,38.67
2018-08-25T08:31:10.493Z,28.60
2018-08-25T08:33:37.620Z,24.67
2018-08-25T08:36:05.003Z,30.57
2018-08-25T08:38:34.563Z,27.13
2018-08-25T08:41:01.672Z,25.30
2018-08-25T08:43:28.805Z,21.57
2018-08-25T08:45:55.889Z,13.17
2018-08-25T08:48:23.670Z,17.30
2018-08-25T08:50:51.100Z,23.00
2018-08-25T08:53:18.210Z,19.90
2018-08-25T08:55:45.285Z,16.23
2018-08-25T08:58:12.749Z,24.07
2018-08-25T09:00:39.891Z,59.23
2018-08-25T09:03:07.021Z,36.23
2018-08-25T09:05:34.630Z,23.93
2018-08-25T09:08:01.742Z,32.30
2018-08-25T09:10:28.898Z,36.93
2018-08-25T09:12:56.308Z,12.10
2018-08-25T09:15:23.372Z,13.70
2018-08-25T09:17:50.439Z,23.53
2018-08-25T09:20:17.640Z,26.27
2018-08-25T09:22:44.756Z,21.43
2018-08-25T09:25:11.897Z,21.40
2018-08-25T09:27:39.356Z,22.37
2018-08-25T09:30:06.462Z,14.50
2018-08-25T09:32:33.659Z,18.27
2018-08-25T09:35:01.005Z,18.63
2018-08-25T09:37:28.127Z,18.77
2018-08-25T09:39:55.311Z,13.13
2018-08-25T09:42:22.537Z,11.77
2018-08-25T09:44:49.735Z,14.30
2018-08-25T09:47:16.932Z,15.20
2018-08-25T09:49:44.419Z,15.87
2018-08-25T09:52:11.666Z,12.60
2018-08-25T09:54:38.829Z,13.60
2018-08-25T09:57:06.061Z,11.50
2018-08-25T09:59:33.119Z,10.50
2018-08-25T10:02:01.374Z,10.50
2018-08-25T10:04:29.676Z,12.40
2018-08-25T10:06:56.763Z,9.80
2018-08-25T10:09:24.018Z,12.90
2018-08-25T10:11:51.289Z,12.97
2018-08-25T10:14:18.522Z,9.63
2018-08-25T10:16:45.649Z,12.93
2018-08-25T10:19:13.015Z,9.23
2018-08-25T10:21:40.106Z,9.97
2018-08-25T10:24:07.268Z,14.27
2018-08-25T10:26:34.706Z,20.13
2018-08-25T10:29:01.842Z,13.10
2018-08-25T10:31:28.995Z,13.57
2018-08-25T10:33:56.420Z,17.50
2018-08-25T10:36:23.529Z,15.03
2018-08-25T10:38:50.630Z,14.77
2018-08-25T10:41:17.692Z,12.80
2018-08-25T10:43:44.786Z,15.80
2018-08-25T10:46:11.880Z,16.47
2018-08-25T10:48:39.276Z,14.90
2018-08-25T10:51:06.462Z,14.50
2018-08-25T10:53:33.515Z,16.07
2018-08-25T10:56:00.948Z,18.97
2018-08-25T10:58:28.082Z,14.47
2018-08-25T11:00:55.325Z,19.83
2018-08-25T11:03:22.702Z,17.60
2018-08-25T11:05:49.762Z,15.80
2018-08-25T11:08:16.790Z,17.70
2018-08-25T11:10:43.848Z,13.33
2018-08-25T11:13:10.925Z,12.40
2018-08-25T11:15:38.012Z,14.30
2018-08-25T11:18:05.580Z,12.33
2018-08-25T11:20:32.557Z,10.20
2018-08-25T11:22:59.538Z,14.13
2018-08-25T11:25:26.858Z,16.97
2018-08-25T11:27:53.869Z,14.00
2018-08-25T11:30:20.882Z,10.30
2018-08-25T11:32:48.410Z,6.87
2018-08-25T11:35:15.594Z,10.33
2018-08-25T11:37:43.002Z,10.50
2018-08-25T11:40:09.987Z,6.63
2018-08-25T11:42:37.074Z,8.57
2018-08-25T11:45:04.498Z,5.67
2018-08-25T11:47:31.984Z,6.13
2018-08-25T11:49:59.197Z,8.07
2018-08-25T11:52:26.294Z,5.77
2018-08-25T11:54:53.569Z,8.53
2018-08-25T11:57:20.666Z,10.10
2018-08-25T11:59:47.738Z,8.60
2018-08-25T12:02:14.912Z,5.27
2018-08-25T12:04:42.010Z,13.13
2018-08-25T12:07:09.121Z,6.13
2018-08-25T12:09:36.411Z,3.53
2018-08-25T12:12:03.503Z,3.80
2018-08-25T12:14:30.530Z,3.00
2018-08-25T12:16:57.892Z,7.50
2018-08-25T12:19:24.996Z,7.67
2018-08-25T12:21:52.056Z,7.63
2018-08-25T12:24:19.050Z,5.73
2018-08-25T12:26:46.778Z,8.27
2018-08-25T12:29:13.820Z,8.33
2018-08-25T12:31:41.191Z,10.57
2018-08-25T12:34:08.213Z,7.40
2018-08-25T12:36:35.156Z,6.33
2018-08-25T12:39:02.542Z,6.17
2018-08-25T12:41:29.603Z,8.00
2018-08-25T12:43:56.608Z,4.27
2018-08-25T12:46:23.681Z,10.80
2018-08-25T12:48:50.747Z,8.60
2018-08-25T12:51:17.686Z,13.73
2018-08-25T12:53:44.943Z,10.87
2018-08-25T12:56:11.922Z,6.07
2018-08-25T12:58:39.046Z,5.97
2018-08-25T13:01:06.492Z,6.50
2018-08-25T13:03:33.507Z,5.53
2018-08-25T13:06:00.507Z,10.70
2018-08-25T13:08:27.877Z,6.60
2018-08-25T13:10:54.876Z,5.83
2018-08-25T13:13:21.813Z,12.10
2018-08-25T13:15:48.799Z,10.60
2018-08-25T13:18:15.907Z,8.80
2018-08-25T13:20:42.882Z,6.80
2018-08-25T13:23:10.289Z,10.97
2018-08-25T13:25:37.274Z,8.37
2018-08-25T13:28:04.220Z,7.87
2018-08-25T13:30:31.531Z,8.97
2018-08-25T13:32:58.459Z,10.33
2018-08-25T13:35:25.585Z,6.67
2018-08-25T13:37:52.885Z,10.27
2018-08-25T13:40:19.877Z,8.20
2018-08-25T13:42:46.930Z,15.00
2018-08-25T13:45:14.056Z,7.80
2018-08-25T13:47:41.147Z,15.90
2018-08-25T13:50:08.113Z,7.67
2018-08-25T13:52:35.598Z,14.00
2018-08-25T13:55:02.602Z,16.50
2018-08-25T13:57:29.774Z,7.03
2018-08-25T13:59:56.921Z,7.70
2018-08-25T14:02:24.004Z,9.63
2018-08-25T14:04:51.121Z,9.50
2018-08-25T14:07:18.585Z,9.07
2018-08-25T14:09:45.648Z,9.50
2018-08-25T14:12:12.668Z,10.07
2018-08-25T14:14:39.814Z,14.37
2018-08-25T14:17:06.943Z,9.73
2018-08-25T14:19:33.976Z,13.50
2018-08-25T14:22:01.050Z,9.87
2018-08-25T14:24:28.105Z,13.70
2018-08-25T14:26:55.203Z,6.73
2018-08-25T14:29:22.621Z,13.43
2018-08-25T14:31:49.611Z,10.90
2018-08-25T14:34:16.581Z,17.30
2018-08-25T14:36:43.631Z,10.90
2018-08-25T14:39:11.218Z,11.27
2018-08-25T14:41:38.181Z,9.10
2018-08-25T14:44:05.767Z,11.00
2018-08-25T14:46:33.269Z,10.30
2018-08-25T14:49:00.349Z,8.73
2018-08-25T14:51:27.698Z,9.33
2018-08-25T14:53:54.679Z,14.07
2018-08-25T14:56:21.650Z,14.97
2018-08-25T14:58:48.929Z,9.97
2018-08-25T15:01:15.854Z,20.60
2018-08-25T15:03:42.841Z,18.73
2018-08-25T15:06:09.954Z,16.23
2018-08-25T15:08:36.952Z,7.80
2018-08-25T15:11:04.020Z,6.93
2018-08-25T15:13:31.429Z,9.77
2018-08-25T15:15:58.448Z,12.10
2018-08-25T15:18:25.547Z,13.63
2018-08-25T15:20:52.486Z,16.47
2018-08-25T15:23:19.475Z,16.77
2018-08-25T15:25:46.441Z,16.60
2018-08-25T15:28:13.928Z,9.10
2018-08-25T15:30:40.883Z,12.00
2018-08-25T15:33:07.883Z,10.03
2018-08-25T15:35:35.164Z,12.73
2018-08-25T15:38:02.172Z,7.50
2018-08-25T15:40:29.159Z,5.97
2018-08-25T15:42:56.456Z,9.07
2018-08-25T15:45:23.547Z,4.00
2018-08-25T15:47:50.538Z,4.23
2018-08-25T15:50:17.552Z,5.73
2018-08-25T15:52:44.497Z,6.50
2018-08-25T15:55:11.486Z,4.53
2018-08-25T15:57:38.814Z,5.90
2018-08-25T16:00:06.591Z,5.83
2018-08-25T16:02:33.841Z,4.20
2018-08-25T16:05:01.137Z,3.90
2018-08-25T16:07:28.150Z,3.10
2018-08-25T16:09:55.164Z,3.63
2018-08-25T16:12:22.536Z,2.67
2018-08-25T16:14:49.403Z,5.53
2018-08-25T16:17:16.353Z,2.77
2018-08-25T16:19:43.516Z,2.70
2018-08-25T16:22:10.444Z,1.93
2018-08-25T16:24:37.376Z,3.80
2018-08-25T16:27:04.771Z,6.83
2018-08-25T16:29:31.683Z,3.40
2018-08-25T16:31:58.691Z,2.73
2018-08-25T16:34:25.923Z,5.03
2018-08-25T16:36:52.921Z,2.47
2018-08-25T16:39:19.880Z,4.50
2018-08-25T16:41:47.125Z,7.67
2018-08-25T16:44:14.079Z,2.10
2018-08-25T16:46:41.024Z,8.07
2018-08-25T16:49:08.022Z,5.03
2018-08-25T16:51:34.945Z,2.60
2018-08-25T16:54:01.907Z,9.43
2018-08-25T16:56:29.176Z,16.80
2018-08-25T16:58:56.233Z,23.80
2018-08-25T17:01:23.198Z,19.30
2018-08-25T17:03:50.551Z,26.67
2018-08-25T17:06:17.581Z,18.07
2018-08-25T17:08:44.509Z,18.37
2018-08-25T17:11:11.489Z,7.90
2018-08-25T17:13:38.409Z,4.10
2018-08-25T17:16:05.370Z,25.93
2018-08-25T17:18:32.667Z,15.77
2018-08-25T17:20:59.678Z,21.33
2018-08-25T17:23:26.598Z,8.60
2018-08-25T17:25:53.551Z,3.17
2018-08-25T17:28:20.617Z,3.47
2018-08-25T17:30:47.545Z,5.43
2018-08-25T17:33:14.916Z,5.13
2018-08-25T17:35:41.930Z,5.73
2018-08-25T17:38:09.058Z,8.47
2018-08-25T17:40:36.356Z,6.37
2018-08-25T17:43:03.349Z,13.43
2018-08-25T17:45:30.344Z,6.93
2018-08-25T17:47:57.818Z,4.63
2018-08-25T17:50:24.954Z,2.73
2018-08-25T17:52:51.987Z,4.20
2018-08-25T17:55:18.950Z,3.73
2018-08-25T17:57:46.203Z,16.40
2018-08-25T18:00:13.757Z,3.00
2018-08-25T18:02:40.808Z,5.40
2018-08-25T18:05:07.852Z,4.53
2018-08-25T18:07:34.899Z,3.60
2018-08-25T18:10:02.270Z,3.70
2018-08-25T18:12:29.438Z,6.73
2018-08-25T18:14:56.529Z,3.90
2018-08-25T18:17:23.682Z,6.73
2018-08-25T18:19:50.752Z,2.17
2018-08-25T18:22:17.813Z,2.77
2018-08-25T18:24:45.242Z,14.90
2018-08-25T18:27:12.256Z,3.30
2018-08-25T18:29:40.105Z,4.17
2018-08-25T18:32:07.281Z,8.03
2018-08-25T18:34:34.269Z,5.10
2018-08-25T18:37:01.338Z,10.70
2018-08-25T18:39:28.792Z,6.23
2018-08-25T18:41:55.870Z,9.33
2018-08-25T18:44:22.892Z,3.80
2018-08-25T18:46:50.309Z,5.57
2018-08-25T18:49:17.361Z,6.27
2018-08-25T18:51:44.449Z,4.33
2018-08-25T18:54:11.890Z,3.50
2018-08-25T18:56:38.965Z,6.80
2018-08-25T18:59:06.131Z,3.50
2018-08-25T19:01:33.224Z,10.00
2018-08-25T19:04:00.317Z,2.20
2018-08-25T19:06:27.376Z,4.47
2018-08-25T19:08:54.764Z,6.93
2018-08-25T19:11:21.853Z,2.50
2018-08-25T19:13:48.940Z,6.53
2018-08-25T19:16:16.326Z,14.00
2018-08-25T19:18:43.458Z,5.13
2018-08-25T19:21:10.629Z,8.03
2018-08-25T19:23:37.748Z,9.63
2018-08-25T19:26:04.839Z,8.20
2018-08-25T19:28:31.986Z,5.27
2018-08-25T19:30:59.453Z,7.20
2018-08-25T19:33:26.609Z,4.77
2018-08-25T19:35:53.718Z,2.43
2018-08-25T19:38:21.101Z,5.13
2018-08-25T19:40:48.205Z,11.87
2018-08-25T19:43:15.315Z,5.90
2018-08-25T19:45:42.626Z,4.17
2018-08-25T19:48:09.742Z,3.50
2018-08-25T19:50:36.884Z,12.50
2018-08-25T19:53:04.336Z,2.80
2018-08-25T19:55:31.414Z,3.23
2018-08-25T19:57:58.534Z,15.30
2018-08-25T20:00:26.023Z,3.10
2018-08-25T20:02:53.067Z,2.73
2018-08-25T20:05:20.147Z,4.70
2018-08-25T20:07:47.667Z,6.93
2018-08-25T20:10:14.848Z,3.20
2018-08-25T20:12:41.939Z,2.67
2018-08-25T20:15:09.458Z,4.00
2018-08-25T20:17:36.483Z,4.57
2018-08-25T20:20:03.704Z,8.83
2018-08-25T20:22:31.369Z,3.87
2018-08-25T20:24:58.469Z,7.00
2018-08-25T20:27:25.508Z,7.47
2018-08-25T20:29:52.622Z,3.40
2018-08-25T20:32:19.679Z,4.33
2018-08-25T20:34:46.799Z,3.30
2018-08-25T20:37:14.159Z,4.30
2018-08-25T20:39:41.232Z,5.30
2018-08-25T20:42:08.300Z,6.10
2018-08-25T20:44:35.764Z,5.70
2018-08-25T20:47:02.872Z,6.20
2018-08-25T20:49:29.994Z,4.00
2018-08-25T20:51:57.429Z,4.13
2018-08-25T20:54:24.528Z,4.87
2018-08-25T20:56:51.628Z,4.07
2018-08-25T20:59:19.076Z,4.20
2018-08-25T21:01:46.132Z,5.23
2018-08-25T21:04:13.197Z,7.00
2018-08-25T21:06:40.322Z,5.73
2018-08-25T21:09:07.864Z,4.27
2018-08-25T21:11:34.916Z,3.10
2018-08-25T21:14:02.707Z,2.97
2018-08-25T21:16:29.829Z,7.27
2018-08-25T21:18:56.896Z,3.27
2018-08-25T21:21:24.353Z,4.53
2018-08-25T21:23:51.480Z,4.03
2018-08-25T21:26:18.610Z,6.50
2018-08-25T21:28:45.825Z,4.70
2018-08-25T21:31:12.951Z,6.90
2018-08-25T21:33:40.037Z,3.47
2018-08-25T21:36:07.437Z,4.03
2018-08-25T21:38:34.585Z,4.17
2018-08-25T21:41:01.682Z,3.33
2018-08-25T21:43:28.981Z,2.57
2018-08-25T21:45:56.057Z,3.70
2018-08-25T21:48:23.150Z,3.97
2018-08-25T21:50:50.596Z,3.50
2018-08-25T21:53:17.644Z,3.60
2018-08-25T21:55:44.697Z,4.27
2018-08-25T21:58:11.788Z,4.40
2018-08-25T22:00:44.629Z,3.50
2018-08-25T22:03:12.066Z,11.47
2018-08-25T22:05:39.088Z,4.37
2018-08-25T22:08:06.190Z,3.27
2018-08-25T22:10:33.533Z,5.93
2018-08-25T22:13:00.579Z,5.00
2018-08-25T22:15:27.660Z,20.83
2018-08-25T22:17:55.016Z,12.57
2018-08-25T22:20:22.110Z,18.20
2018-08-25T22:22:49.168Z,8.90
2018-08-25T22:25:16.223Z,6.17
2018-08-25T22:27:43.247Z,20.23
2018-08-25T22:30:10.358Z,34.70
2018-08-25T22:32:37.440Z,30.43
2018-08-25T22:35:04.493Z,32.87
2018-08-25T22:37:31.561Z,9.50
2018-08-25T22:39:58.790Z,14.37
2018-08-25T22:42:25.805Z,12.90
2018-08-25T22:44:52.926Z,14.10
2018-08-25T22:47:20.305Z,15.80
2018-08-25T22:49:47.369Z,7.30
2018-08-25T22:52:14.482Z,9.70
2018-08-25T22:54:41.694Z,7.43
2018-08-25T22:57:08.739Z,3.47
2018-08-25T22:59:35.762Z,7.13
2018-08-25T23:02:02.825Z,4.20
2018-08-25T23:04:29.933Z,8.87
2018-08-25T23:06:56.951Z,11.87
2018-08-25T23:09:24.049Z,5.90
2018-08-25T23:11:51.111Z,8.00
2018-08-25T23:14:18.222Z,6.73
2018-08-25T23:16:45.342Z,5.40
2018-08-25T23:19:12.375Z,4.43
2018-08-25T23:21:39.472Z,4.23
2018-08-25T23:24:06.573Z,6.20
2018-08-25T23:26:33.738Z,6.67
2018-08-25T23:29:00.839Z,3.03
2018-08-25T23:31:27.965Z,5.00
2018-08-25T23:33:55.016Z,2.87
2018-08-25T23:36:22.141Z,2.27
2018-08-25T23:38:49.368Z,4.73
2018-08-25T23:41:16.524Z,10.77
2018-08-25T23:43:43.576Z,2.97
2018-08-25T23:46:10.718Z,8.47
2018-08-25T23:48:37.764Z,4.73
2018-08-25T23:51:04.860Z,3.30
2018-08-25T23:53:31.913Z,6.13
2018-08-25T23:55:58.951Z,5.40
2018-08-25T23:58:26.128Z,4.00
